sensor_id;sensor_type;location;lat;lon;timestamp;temperature;humidity
23748;DHT22;12054;53.662;10.126;2023-05-14T00:00:12;14.50;90.70
23748;DHT22;12054;53.662;10.126;2023-05-14T00:02:37;14.50;90.80
23748;DHT22;12054;53.662;10.126;2023-05-14T00:05:03;14.40;90.90
23748;DHT22;12054;53.662;10.126;2023-05-14T00:07:29;14.40;91.00
23748;DHT22;12054;53.662;10.126;2023-05-14T00:09:58;14.40;91.10
23748;DHT22;12054;53.662;10.126;2023-05-14T00:12:24;14.30;91.10
23748;DHT22;12054;53.662;10.126;2023-05-14T00:14:50;14.30;91.20
23748;DHT22;12054;53.662;10.126;2023-05-14T00:17:16;14.30;91.30
23748;DHT22;12054;53.662;10.126;2023-05-14T00:19:42;14.20;91.40
23748;DHT22;12054;53.662;10.126;2023-05-14T00:22:08;14.20;91.40
23748;DHT22;12054;53.662;10.126;2023-05-14T00:24:34;14.20;91.50
23748;DHT22;12054;53.662;10.126;2023-05-14T00:27:00;14.10;91.50
23748;DHT22;12054;53.662;10.126;2023-05-14T00:29:25;14.10;91.60
23748;DHT22;12054;53.662;10.126;2023-05-14T00:31:51;14.00;91.70
23748;DHT22;12054;53.662;10.126;2023-05-14T00:34:16;14.00;91.80
23748;DHT22;12054;53.662;10.126;2023-05-14T00:36:42;14.00;91.90
23748;DHT22;12054;53.662;10.126;2023-05-14T00:39:07;13.90;92.00
23748;DHT22;12054;53.662;10.126;2023-05-14T00:41:33;13.90;92.10
23748;DHT22;12054;53.662;10.126;2023-05-14T00:43:58;13.90;92.20
23748;DHT22;12054;53.662;10.126;2023-05-14T00:46:24;13.80;92.20
23748;DHT22;12054;53.662;10.126;2023-05-14T00:48:50;13.80;92.30
23748;DHT22;12054;53.662;10.126;2023-05-14T00:51:16;13.70;92.40
23748;DHT22;12054;53.662;10.126;2023-05-14T00:53:42;13.70;92.50
23748;DHT22;12054;53.662;10.126;2023-05-14T00:56:08;13.70;92.60
23748;DHT22;12054;53.662;10.126;2023-05-14T00:58:33;13.60;92.70
23748;DHT22;12054;53.662;10.126;2023-05-14T01:00:59;13.60;92.80
23748;DHT22;12054;53.662;10.126;2023-05-14T01:03:25;13.60;92.90
23748;DHT22;12054;53.662;10.126;2023-05-14T01:09:14;13.50;93.10
23748;DHT22;12054;53.662;10.126;2023-05-14T01:11:54;13.50;93.20
23748;DHT22;12054;53.662;10.126;2023-05-14T01:14:33;13.50;93.30
23748;DHT22;12054;53.662;10.126;2023-05-14T01:17:03;13.40;93.40
23748;DHT22;12054;53.662;10.126;2023-05-14T01:19:46;13.30;93.40
23748;DHT22;12054;53.662;10.126;2023-05-14T01:22:12;13.30;93.60
23748;DHT22;12054;53.662;10.126;2023-05-14T01:24:38;13.30;93.60
23748;DHT22;12054;53.662;10.126;2023-05-14T01:27:27;13.20;93.70
23748;DHT22;12054;53.662;10.126;2023-05-14T01:30:12;13.20;93.80
23748;DHT22;12054;53.662;10.126;2023-05-14T01:32:39;13.20;93.90
23748;DHT22;12054;53.662;10.126;2023-05-14T01:35:07;13.10;93.90
23748;DHT22;12054;53.662;10.126;2023-05-14T01:37:35;13.10;94.00
23748;DHT22;12054;53.662;10.126;2023-05-14T01:40:01;13.00;94.00
23748;DHT22;12054;53.662;10.126;2023-05-14T01:42:28;13.00;94.10
23748;DHT22;12054;53.662;10.126;2023-05-14T01:44:54;12.90;94.20
23748;DHT22;12054;53.662;10.126;2023-05-14T01:47:19;12.90;94.30
23748;DHT22;12054;53.662;10.126;2023-05-14T01:49:45;12.90;94.50
23748;DHT22;12054;53.662;10.126;2023-05-14T01:52:10;12.90;94.70
23748;DHT22;12054;53.662;10.126;2023-05-14T01:54:36;12.90;94.80
23748;DHT22;12054;53.662;10.126;2023-05-14T01:57:02;12.90;95.00
23748;DHT22;12054;53.662;10.126;2023-05-14T01:59:30;12.80;95.10
23748;DHT22;12054;53.662;10.126;2023-05-14T02:01:56;12.80;95.30
23748;DHT22;12054;53.662;10.126;2023-05-14T02:04:21;12.80;95.40
23748;DHT22;12054;53.662;10.126;2023-05-14T02:06:47;12.80;95.50
23748;DHT22;12054;53.662;10.126;2023-05-14T02:09:12;12.70;95.70
23748;DHT22;12054;53.662;10.126;2023-05-14T02:11:38;12.70;95.80
23748;DHT22;12054;53.662;10.126;2023-05-14T02:14:03;12.70;95.90
23748;DHT22;12054;53.662;10.126;2023-05-14T02:16:29;12.60;96.00
23748;DHT22;12054;53.662;10.126;2023-05-14T02:18:54;12.60;96.10
23748;DHT22;12054;53.662;10.126;2023-05-14T02:21:20;12.60;96.20
23748;DHT22;12054;53.662;10.126;2023-05-14T02:23:45;12.60;96.30
23748;DHT22;12054;53.662;10.126;2023-05-14T02:26:12;12.50;96.40
23748;DHT22;12054;53.662;10.126;2023-05-14T02:28:38;12.50;96.50
23748;DHT22;12054;53.662;10.126;2023-05-14T02:31:03;12.50;96.70
23748;DHT22;12054;53.662;10.126;2023-05-14T02:33:29;12.50;96.80
23748;DHT22;12054;53.662;10.126;2023-05-14T02:35:54;12.40;96.90
23748;DHT22;12054;53.662;10.126;2023-05-14T02:38:20;12.40;97.00
23748;DHT22;12054;53.662;10.126;2023-05-14T02:40:45;12.30;97.10
23748;DHT22;12054;53.662;10.126;2023-05-14T02:43:11;12.40;97.30
23748;DHT22;12054;53.662;10.126;2023-05-14T02:45:36;12.30;97.40
23748;DHT22;12054;53.662;10.126;2023-05-14T02:48:02;12.30;97.50
23748;DHT22;12054;53.662;10.126;2023-05-14T02:50:27;12.30;97.60
23748;DHT22;12054;53.662;10.126;2023-05-14T02:52:53;12.30;97.70
23748;DHT22;12054;53.662;10.126;2023-05-14T02:55:18;12.20;97.80
23748;DHT22;12054;53.662;10.126;2023-05-14T02:57:44;12.20;97.90
23748;DHT22;12054;53.662;10.126;2023-05-14T03:00:10;12.20;98.10
23748;DHT22;12054;53.662;10.126;2023-05-14T03:02:36;12.20;98.20
23748;DHT22;12054;53.662;10.126;2023-05-14T03:05:01;12.20;98.30
23748;DHT22;12054;53.662;10.126;2023-05-14T03:07:27;12.10;98.40
23748;DHT22;12054;53.662;10.126;2023-05-14T03:09:53;12.10;98.50
23748;DHT22;12054;53.662;10.126;2023-05-14T03:12:19;12.10;98.70
23748;DHT22;12054;53.662;10.126;2023-05-14T03:14:45;12.10;98.80
23748;DHT22;12054;53.662;10.126;2023-05-14T03:17:11;12.00;98.90
23748;DHT22;12054;53.662;10.126;2023-05-14T03:19:36;12.00;99.00
23748;DHT22;12054;53.662;10.126;2023-05-14T03:22:02;12.00;99.10
23748;DHT22;12054;53.662;10.126;2023-05-14T03:24:28;12.00;99.10
23748;DHT22;12054;53.662;10.126;2023-05-14T03:26:54;12.00;99.20
23748;DHT22;12054;53.662;10.126;2023-05-14T03:29:19;11.90;99.20
23748;DHT22;12054;53.662;10.126;2023-05-14T03:31:45;11.90;99.40
23748;DHT22;12054;53.662;10.126;2023-05-14T03:34:10;11.90;99.50
23748;DHT22;12054;53.662;10.126;2023-05-14T03:36:36;11.80;99.60
23748;DHT22;12054;53.662;10.126;2023-05-14T03:39:03;11.80;99.70
23748;DHT22;12054;53.662;10.126;2023-05-14T03:41:31;11.80;99.90
23748;DHT22;12054;53.662;10.126;2023-05-14T03:43:56;11.80;99.90
23748;DHT22;12054;53.662;10.126;2023-05-14T03:46:22;11.80;99.90
23748;DHT22;12054;53.662;10.126;2023-05-14T03:48:47;11.80;99.90
23748;DHT22;12054;53.662;10.126;2023-05-14T03:51:13;11.70;99.90
23748;DHT22;12054;53.662;10.126;2023-05-14T03:53:38;11.70;99.90
23748;DHT22;12054;53.662;10.126;2023-05-14T03:56:04;11.70;99.90
23748;DHT22;12054;53.662;10.126;2023-05-14T03:58:29;11.70;99.90
23748;DHT22;12054;53.662;10.126;2023-05-14T04:00:55;11.70;99.90
23748;DHT22;12054;53.662;10.126;2023-05-14T04:03:21;11.70;99.90
23748;DHT22;12054;53.662;10.126;2023-05-14T04:05:46;11.70;99.90
23748;DHT22;12054;53.662;10.126;2023-05-14T04:08:11;11.70;99.90
23748;DHT22;12054;53.662;10.126;2023-05-14T04:10:37;11.70;99.90
23748;DHT22;12054;53.662;10.126;2023-05-14T04:13:02;11.70;99.90
23748;DHT22;12054;53.662;10.126;2023-05-14T04:15:28;11.70;99.90
23748;DHT22;12054;53.662;10.126;2023-05-14T04:17:53;11.70;99.90
23748;DHT22;12054;53.662;10.126;2023-05-14T04:20:19;11.80;99.90
23748;DHT22;12054;53.662;10.126;2023-05-14T04:22:44;11.80;99.90
23748;DHT22;12054;53.662;10.126;2023-05-14T04:25:10;11.80;99.90
23748;DHT22;12054;53.662;10.126;2023-05-14T04:27:35;11.80;99.90
23748;DHT22;12054;53.662;10.126;2023-05-14T04:30:01;11.80;99.90
23748;DHT22;12054;53.662;10.126;2023-05-14T04:32:27;11.80;99.90
23748;DHT22;12054;53.662;10.126;2023-05-14T04:34:52;11.80;99.90
23748;DHT22;12054;53.662;10.126;2023-05-14T04:37:31;11.80;99.90
23748;DHT22;12054;53.662;10.126;2023-05-14T04:39:57;11.80;99.90
23748;DHT22;12054;53.662;10.126;2023-05-14T04:42:23;11.90;99.90
23748;DHT22;12054;53.662;10.126;2023-05-14T04:44:48;11.90;99.90
23748;DHT22;12054;53.662;10.126;2023-05-14T04:47:14;11.90;99.90
23748;DHT22;12054;53.662;10.126;2023-05-14T04:49:39;11.90;99.90
23748;DHT22;12054;53.662;10.126;2023-05-14T04:52:05;11.90;99.90
23748;DHT22;12054;53.662;10.126;2023-05-14T04:54:31;11.90;99.90
23748;DHT22;12054;53.662;10.126;2023-05-14T04:56:56;12.00;99.90
23748;DHT22;12054;53.662;10.126;2023-05-14T04:59:35;12.00;99.90
23748;DHT22;12054;53.662;10.126;2023-05-14T05:02:01;12.00;99.90
23748;DHT22;12054;53.662;10.126;2023-05-14T05:04:26;12.10;99.90
23748;DHT22;12054;53.662;10.126;2023-05-14T05:06:52;12.10;99.90
23748;DHT22;12054;53.662;10.126;2023-05-14T05:09:17;12.10;99.90
23748;DHT22;12054;53.662;10.126;2023-05-14T05:11:43;12.10;99.90
23748;DHT22;12054;53.662;10.126;2023-05-14T05:14:08;12.10;99.90
23748;DHT22;12054;53.662;10.126;2023-05-14T05:16:34;12.20;99.90
23748;DHT22;12054;53.662;10.126;2023-05-14T05:18:59;12.20;99.90
23748;DHT22;12054;53.662;10.126;2023-05-14T05:21:25;12.20;99.90
23748;DHT22;12054;53.662;10.126;2023-05-14T05:23:50;12.30;99.90
23748;DHT22;12054;53.662;10.126;2023-05-14T05:26:16;12.30;99.90
23748;DHT22;12054;53.662;10.126;2023-05-14T05:28:41;12.40;99.90
23748;DHT22;12054;53.662;10.126;2023-05-14T05:31:07;12.40;99.90
23748;DHT22;12054;53.662;10.126;2023-05-14T05:33:33;12.50;99.90
23748;DHT22;12054;53.662;10.126;2023-05-14T05:35:59;12.60;99.90
23748;DHT22;12054;53.662;10.126;2023-05-14T05:38:25;12.70;99.90
23748;DHT22;12054;53.662;10.126;2023-05-14T05:40:50;12.80;99.90
23748;DHT22;12054;53.662;10.126;2023-05-14T05:43:16;12.80;99.90
23748;DHT22;12054;53.662;10.126;2023-05-14T05:45:42;12.90;99.90
23748;DHT22;12054;53.662;10.126;2023-05-14T05:48:08;13.00;99.90
23748;DHT22;12054;53.662;10.126;2023-05-14T05:50:33;13.10;99.90
23748;DHT22;12054;53.662;10.126;2023-05-14T05:52:59;13.10;99.90
23748;DHT22;12054;53.662;10.126;2023-05-14T05:55:24;13.20;99.90
23748;DHT22;12054;53.662;10.126;2023-05-14T05:57:50;13.30;99.90
23748;DHT22;12054;53.662;10.126;2023-05-14T06:00:16;13.30;99.90
23748;DHT22;12054;53.662;10.126;2023-05-14T06:02:42;13.50;99.90
23748;DHT22;12054;53.662;10.126;2023-05-14T06:05:08;13.60;99.90
23748;DHT22;12054;53.662;10.126;2023-05-14T06:07:34;13.60;99.90
23748;DHT22;12054;53.662;10.126;2023-05-14T06:10:00;13.80;99.90
23748;DHT22;12054;53.662;10.126;2023-05-14T06:12:26;13.80;99.90
23748;DHT22;12054;53.662;10.126;2023-05-14T06:14:53;14.00;99.90
23748;DHT22;12054;53.662;10.126;2023-05-14T06:17:20;14.10;99.90
23748;DHT22;12054;53.662;10.126;2023-05-14T06:19:45;14.10;99.90
23748;DHT22;12054;53.662;10.126;2023-05-14T06:22:11;14.20;99.90
23748;DHT22;12054;53.662;10.126;2023-05-14T06:24:36;14.20;99.90
23748;DHT22;12054;53.662;10.126;2023-05-14T06:27:02;14.30;99.90
23748;DHT22;12054;53.662;10.126;2023-05-14T06:29:28;14.40;99.90
23748;DHT22;12054;53.662;10.126;2023-05-14T06:31:59;14.50;99.90
23748;DHT22;12054;53.662;10.126;2023-05-14T06:34:25;14.60;99.90
23748;DHT22;12054;53.662;10.126;2023-05-14T06:36:50;14.60;99.90
23748;DHT22;12054;53.662;10.126;2023-05-14T06:39:16;14.70;99.90
23748;DHT22;12054;53.662;10.126;2023-05-14T06:41:42;14.80;99.90
23748;DHT22;12054;53.662;10.126;2023-05-14T06:44:07;14.80;99.90
23748;DHT22;12054;53.662;10.126;2023-05-14T06:46:33;14.90;99.90
23748;DHT22;12054;53.662;10.126;2023-05-14T06:48:58;14.90;99.90
23748;DHT22;12054;53.662;10.126;2023-05-14T06:51:24;15.00;99.90
23748;DHT22;12054;53.662;10.126;2023-05-14T06:53:49;15.10;99.90
23748;DHT22;12054;53.662;10.126;2023-05-14T06:56:16;15.20;99.90
23748;DHT22;12054;53.662;10.126;2023-05-14T06:58:42;15.30;99.90
23748;DHT22;12054;53.662;10.126;2023-05-14T07:01:07;15.40;99.90
23748;DHT22;12054;53.662;10.126;2023-05-14T07:03:33;15.60;99.90
23748;DHT22;12054;53.662;10.126;2023-05-14T07:05:58;15.80;99.90
23748;DHT22;12054;53.662;10.126;2023-05-14T07:08:24;16.00;99.90
23748;DHT22;12054;53.662;10.126;2023-05-14T07:10:50;16.10;99.90
23748;DHT22;12054;53.662;10.126;2023-05-14T07:13:15;16.30;99.90
23748;DHT22;12054;53.662;10.126;2023-05-14T07:15:41;16.50;99.90
23748;DHT22;12054;53.662;10.126;2023-05-14T07:18:06;16.60;99.90
23748;DHT22;12054;53.662;10.126;2023-05-14T07:20:32;16.80;99.90
23748;DHT22;12054;53.662;10.126;2023-05-14T07:22:57;16.90;99.90
23748;DHT22;12054;53.662;10.126;2023-05-14T07:25:23;17.10;99.90
23748;DHT22;12054;53.662;10.126;2023-05-14T07:27:48;17.30;99.90
23748;DHT22;12054;53.662;10.126;2023-05-14T07:30:14;17.50;99.90
23748;DHT22;12054;53.662;10.126;2023-05-14T07:32:40;17.60;99.90
23748;DHT22;12054;53.662;10.126;2023-05-14T07:35:05;17.80;99.90
23748;DHT22;12054;53.662;10.126;2023-05-14T07:37:31;17.90;99.90
23748;DHT22;12054;53.662;10.126;2023-05-14T07:39:57;18.00;99.90
23748;DHT22;12054;53.662;10.126;2023-05-14T07:42:22;18.20;99.70
23748;DHT22;12054;53.662;10.126;2023-05-14T07:44:48;18.30;98.80
23748;DHT22;12054;53.662;10.126;2023-05-14T07:47:15;18.40;98.60
23748;DHT22;12054;53.662;10.126;2023-05-14T07:49:44;18.60;98.70
23748;DHT22;12054;53.662;10.126;2023-05-14T07:52:10;18.70;97.80
23748;DHT22;12054;53.662;10.126;2023-05-14T07:54:35;18.90;96.90
23748;DHT22;12054;53.662;10.126;2023-05-14T07:57:01;19.00;96.20
23748;DHT22;12054;53.662;10.126;2023-05-14T07:59:26;19.00;95.90
23748;DHT22;12054;53.662;10.126;2023-05-14T08:01:52;19.20;95.50
23748;DHT22;12054;53.662;10.126;2023-05-14T08:04:24;19.30;94.60
23748;DHT22;12054;53.662;10.126;2023-05-14T08:06:50;19.40;93.80
23748;DHT22;12054;53.662;10.126;2023-05-14T08:09:16;19.50;93.30
23748;DHT22;12054;53.662;10.126;2023-05-14T08:11:41;19.60;92.60
23748;DHT22;12054;53.662;10.126;2023-05-14T08:14:07;19.70;92.00
23748;DHT22;12054;53.662;10.126;2023-05-14T08:16:32;19.80;91.60
23748;DHT22;12054;53.662;10.126;2023-05-14T08:18:58;19.80;91.30
23748;DHT22;12054;53.662;10.126;2023-05-14T08:21:23;19.90;90.80
23748;DHT22;12054;53.662;10.126;2023-05-14T08:23:49;20.00;90.80
23748;DHT22;12054;53.662;10.126;2023-05-14T08:26:15;20.10;90.50
23748;DHT22;12054;53.662;10.126;2023-05-14T08:28:41;20.20;90.20
23748;DHT22;12054;53.662;10.126;2023-05-14T08:31:07;20.30;90.00
23748;DHT22;12054;53.662;10.126;2023-05-14T08:33:32;20.40;90.00
23748;DHT22;12054;53.662;10.126;2023-05-14T08:35:58;20.50;89.30
23748;DHT22;12054;53.662;10.126;2023-05-14T08:38:24;20.60;88.60
23748;DHT22;12054;53.662;10.126;2023-05-14T08:40:55;20.60;88.10
23748;DHT22;12054;53.662;10.126;2023-05-14T08:43:25;20.70;86.90
23748;DHT22;12054;53.662;10.126;2023-05-14T08:45:57;20.80;85.30
23748;DHT22;12054;53.662;10.126;2023-05-14T08:48:25;20.90;84.10
23748;DHT22;12054;53.662;10.126;2023-05-14T08:50:53;21.00;82.80
23748;DHT22;12054;53.662;10.126;2023-05-14T08:53:18;21.10;82.50
23748;DHT22;12054;53.662;10.126;2023-05-14T08:55:45;21.20;82.80
23748;DHT22;12054;53.662;10.126;2023-05-14T08:58:14;21.40;82.80
23748;DHT22;12054;53.662;10.126;2023-05-14T09:00:39;21.40;82.00
23748;DHT22;12054;53.662;10.126;2023-05-14T09:03:05;21.40;81.30
23748;DHT22;12054;53.662;10.126;2023-05-14T09:05:31;21.50;80.10
23748;DHT22;12054;53.662;10.126;2023-05-14T09:07:58;21.50;79.30
23748;DHT22;12054;53.662;10.126;2023-05-14T09:10:23;21.60;78.90
23748;DHT22;12054;53.662;10.126;2023-05-14T09:12:49;21.70;77.10
23748;DHT22;12054;53.662;10.126;2023-05-14T09:15:14;21.80;76.20
23748;DHT22;12054;53.662;10.126;2023-05-14T09:17:40;21.90;74.70
23748;DHT22;12054;53.662;10.126;2023-05-14T09:20:06;22.00;74.10
23748;DHT22;12054;53.662;10.126;2023-05-14T09:22:31;22.00;72.80
23748;DHT22;12054;53.662;10.126;2023-05-14T09:25:06;22.10;72.70
23748;DHT22;12054;53.662;10.126;2023-05-14T09:27:34;22.20;72.40
23748;DHT22;12054;53.662;10.126;2023-05-14T09:30:18;22.30;71.90
23748;DHT22;12054;53.662;10.126;2023-05-14T09:32:44;22.40;71.80
23748;DHT22;12054;53.662;10.126;2023-05-14T09:37:45;22.60;69.70
23748;DHT22;12054;53.662;10.126;2023-05-14T09:40:12;22.60;68.40
23748;DHT22;12054;53.662;10.126;2023-05-14T09:42:39;22.60;67.90
23748;DHT22;12054;53.662;10.126;2023-05-14T09:45:06;22.60;68.70
23748;DHT22;12054;53.662;10.126;2023-05-14T09:47:32;22.70;68.00
23748;DHT22;12054;53.662;10.126;2023-05-14T09:49:57;22.70;67.70
23748;DHT22;12054;53.662;10.126;2023-05-14T09:52:23;22.70;67.20
23748;DHT22;12054;53.662;10.126;2023-05-14T09:54:51;22.80;66.90
23748;DHT22;12054;53.662;10.126;2023-05-14T09:57:16;22.80;66.50
23748;DHT22;12054;53.662;10.126;2023-05-14T09:59:42;22.90;65.90
23748;DHT22;12054;53.662;10.126;2023-05-14T10:04:43;23.00;64.10
23748;DHT22;12054;53.662;10.126;2023-05-14T10:07:09;23.00;63.40
23748;DHT22;12054;53.662;10.126;2023-05-14T10:09:37;23.00;63.30
23748;DHT22;12054;53.662;10.126;2023-05-14T10:12:04;23.00;63.10
23748;DHT22;12054;53.662;10.126;2023-05-14T10:14:38;23.00;62.80
23748;DHT22;12054;53.662;10.126;2023-05-14T10:17:05;23.00;62.30
23748;DHT22;12054;53.662;10.126;2023-05-14T10:19:33;23.10;62.10
23748;DHT22;12054;53.662;10.126;2023-05-14T10:22:06;23.00;62.10
23748;DHT22;12054;53.662;10.126;2023-05-14T10:24:34;23.00;60.70
23748;DHT22;12054;53.662;10.126;2023-05-14T10:27:03;23.10;60.60
23748;DHT22;12054;53.662;10.126;2023-05-14T10:29:36;23.10;59.50
23748;DHT22;12054;53.662;10.126;2023-05-14T10:32:06;23.10;59.30
23748;DHT22;12054;53.662;10.126;2023-05-14T10:34:39;23.10;59.30
23748;DHT22;12054;53.662;10.126;2023-05-14T10:37:16;23.10;59.20
23748;DHT22;12054;53.662;10.126;2023-05-14T10:40:00;23.20;58.60
23748;DHT22;12054;53.662;10.126;2023-05-14T10:42:32;23.20;57.80
23748;DHT22;12054;53.662;10.126;2023-05-14T10:45:03;23.30;57.80
23748;DHT22;12054;53.662;10.126;2023-05-14T10:47:32;23.30;57.60
23748;DHT22;12054;53.662;10.126;2023-05-14T10:50:00;23.30;57.50
23748;DHT22;12054;53.662;10.126;2023-05-14T10:52:26;23.30;57.00
23748;DHT22;12054;53.662;10.126;2023-05-14T10:54:53;23.30;57.10
23748;DHT22;12054;53.662;10.126;2023-05-14T10:57:30;23.10;56.70
23748;DHT22;12054;53.662;10.126;2023-05-14T10:59:57;23.10;55.80
23748;DHT22;12054;53.662;10.126;2023-05-14T11:02:28;23.10;56.60
23748;DHT22;12054;53.662;10.126;2023-05-14T11:04:55;23.10;55.90
23748;DHT22;12054;53.662;10.126;2023-05-14T11:07:46;23.10;56.20
23748;DHT22;12054;53.662;10.126;2023-05-14T11:10:15;23.10;56.20
23748;DHT22;12054;53.662;10.126;2023-05-14T11:12:43;23.00;56.20
23748;DHT22;12054;53.662;10.126;2023-05-14T11:15:10;23.10;55.60
23748;DHT22;12054;53.662;10.126;2023-05-14T11:17:38;23.20;55.30
23748;DHT22;12054;53.662;10.126;2023-05-14T11:20:05;23.20;55.00
23748;DHT22;12054;53.662;10.126;2023-05-14T11:22:30;23.20;55.50
23748;DHT22;12054;53.662;10.126;2023-05-14T11:24:56;23.20;56.00
23748;DHT22;12054;53.662;10.126;2023-05-14T11:27:23;23.20;55.70
23748;DHT22;12054;53.662;10.126;2023-05-14T11:29:49;23.20;55.90
23748;DHT22;12054;53.662;10.126;2023-05-14T11:32:16;23.20;56.30
23748;DHT22;12054;53.662;10.126;2023-05-14T11:34:43;23.20;56.80
23748;DHT22;12054;53.662;10.126;2023-05-14T11:37:10;23.20;57.30
23748;DHT22;12054;53.662;10.126;2023-05-14T11:39:37;23.20;56.10
23748;DHT22;12054;53.662;10.126;2023-05-14T11:42:10;23.20;55.10
23748;DHT22;12054;53.662;10.126;2023-05-14T11:44:37;23.30;55.70
23748;DHT22;12054;53.662;10.126;2023-05-14T11:47:03;23.30;56.00
23748;DHT22;12054;53.662;10.126;2023-05-14T11:49:30;23.30;56.20
23748;DHT22;12054;53.662;10.126;2023-05-14T11:52:07;23.20;56.30
23748;DHT22;12054;53.662;10.126;2023-05-14T11:54:34;23.10;56.90
23748;DHT22;12054;53.662;10.126;2023-05-14T11:57:11;23.10;57.30
23748;DHT22;12054;53.662;10.126;2023-05-14T11:59:38;23.10;57.60
23748;DHT22;12054;53.662;10.126;2023-05-14T12:02:08;23.10;56.80
23748;DHT22;12054;53.662;10.126;2023-05-14T12:04:34;23.10;55.70
23748;DHT22;12054;53.662;10.126;2023-05-14T12:07:11;23.00;55.20
23748;DHT22;12054;53.662;10.126;2023-05-14T12:09:47;23.00;56.00
23748;DHT22;12054;53.662;10.126;2023-05-14T12:12:20;22.90;56.30
23748;DHT22;12054;53.662;10.126;2023-05-14T12:14:47;23.00;55.60
23748;DHT22;12054;53.662;10.126;2023-05-14T12:17:14;23.00;55.00
23748;DHT22;12054;53.662;10.126;2023-05-14T12:19:40;23.10;55.30
23748;DHT22;12054;53.662;10.126;2023-05-14T12:22:07;23.10;55.00
23748;DHT22;12054;53.662;10.126;2023-05-14T12:24:33;23.10;55.10
23748;DHT22;12054;53.662;10.126;2023-05-14T12:27:00;23.00;54.50
23748;DHT22;12054;53.662;10.126;2023-05-14T12:29:26;23.00;54.70
23748;DHT22;12054;53.662;10.126;2023-05-14T12:31:52;23.00;54.60
23748;DHT22;12054;53.662;10.126;2023-05-14T12:34:17;23.00;54.50
23748;DHT22;12054;53.662;10.126;2023-05-14T12:36:43;22.90;54.70
23748;DHT22;12054;53.662;10.126;2023-05-14T12:39:09;22.80;54.90
23748;DHT22;12054;53.662;10.126;2023-05-14T12:41:35;22.80;55.70
23748;DHT22;12054;53.662;10.126;2023-05-14T12:44:03;22.70;56.30
23748;DHT22;12054;53.662;10.126;2023-05-14T12:46:29;22.60;56.90
23748;DHT22;12054;53.662;10.126;2023-05-14T12:48:55;22.60;56.90
23748;DHT22;12054;53.662;10.126;2023-05-14T12:51:21;22.50;57.70
23748;DHT22;12054;53.662;10.126;2023-05-14T12:53:47;22.50;59.30
23748;DHT22;12054;53.662;10.126;2023-05-14T12:56:12;22.40;61.30
23748;DHT22;12054;53.662;10.126;2023-05-14T12:58:38;22.40;62.70
23748;DHT22;12054;53.662;10.126;2023-05-14T13:01:04;22.40;63.40
23748;DHT22;12054;53.662;10.126;2023-05-14T13:03:30;22.40;63.10
23748;DHT22;12054;53.662;10.126;2023-05-14T13:05:55;22.40;64.70
23748;DHT22;12054;53.662;10.126;2023-05-14T13:08:21;22.40;67.10
23748;DHT22;12054;53.662;10.126;2023-05-14T13:10:50;22.40;66.80
23748;DHT22;12054;53.662;10.126;2023-05-14T13:13:15;22.40;67.40
23748;DHT22;12054;53.662;10.126;2023-05-14T13:15:41;22.50;68.00
23748;DHT22;12054;53.662;10.126;2023-05-14T13:18:07;22.50;68.50
23748;DHT22;12054;53.662;10.126;2023-05-14T13:20:33;22.50;70.10
23748;DHT22;12054;53.662;10.126;2023-05-14T13:22:59;22.50;71.60
23748;DHT22;12054;53.662;10.126;2023-05-14T13:25:25;22.60;72.20
23748;DHT22;12054;53.662;10.126;2023-05-14T13:27:51;22.60;72.60
23748;DHT22;12054;53.662;10.126;2023-05-14T13:30:17;22.60;72.30
23748;DHT22;12054;53.662;10.126;2023-05-14T13:32:42;22.60;71.90
23748;DHT22;12054;53.662;10.126;2023-05-14T13:35:08;22.70;72.10
23748;DHT22;12054;53.662;10.126;2023-05-14T13:37:34;22.70;71.60
23748;DHT22;12054;53.662;10.126;2023-05-14T13:40:00;22.70;69.60
23748;DHT22;12054;53.662;10.126;2023-05-14T13:42:25;22.70;68.90
23748;DHT22;12054;53.662;10.126;2023-05-14T13:44:51;22.70;67.90
23748;DHT22;12054;53.662;10.126;2023-05-14T13:47:17;22.70;67.10
23748;DHT22;12054;53.662;10.126;2023-05-14T13:49:42;22.70;67.10
23748;DHT22;12054;53.662;10.126;2023-05-14T13:52:08;22.60;65.90
23748;DHT22;12054;53.662;10.126;2023-05-14T13:54:33;22.60;65.60
23748;DHT22;12054;53.662;10.126;2023-05-14T13:56:59;22.60;64.80
23748;DHT22;12054;53.662;10.126;2023-05-14T13:59:24;22.60;64.80
23748;DHT22;12054;53.662;10.126;2023-05-14T14:01:50;22.60;64.60
23748;DHT22;12054;53.662;10.126;2023-05-14T14:04:16;22.60;64.00
23748;DHT22;12054;53.662;10.126;2023-05-14T14:06:42;22.60;63.70
23748;DHT22;12054;53.662;10.126;2023-05-14T14:09:07;22.60;64.30
23748;DHT22;12054;53.662;10.126;2023-05-14T14:11:35;22.60;65.30
23748;DHT22;12054;53.662;10.126;2023-05-14T14:14:00;22.60;66.10
23748;DHT22;12054;53.662;10.126;2023-05-14T14:16:26;22.60;65.90
23748;DHT22;12054;53.662;10.126;2023-05-14T14:18:51;22.60;65.40
23748;DHT22;12054;53.662;10.126;2023-05-14T14:21:16;22.60;66.30
23748;DHT22;12054;53.662;10.126;2023-05-14T14:23:45;22.60;65.50
23748;DHT22;12054;53.662;10.126;2023-05-14T14:26:11;22.60;64.20
23748;DHT22;12054;53.662;10.126;2023-05-14T14:28:37;22.70;64.50
23748;DHT22;12054;53.662;10.126;2023-05-14T14:31:02;22.70;63.20
23748;DHT22;12054;53.662;10.126;2023-05-14T14:33:28;22.60;62.90
23748;DHT22;12054;53.662;10.126;2023-05-14T14:35:53;22.70;62.70
23748;DHT22;12054;53.662;10.126;2023-05-14T14:38:19;22.70;61.90
23748;DHT22;12054;53.662;10.126;2023-05-14T14:40:44;22.60;62.00
23748;DHT22;12054;53.662;10.126;2023-05-14T14:43:10;22.60;62.40
23748;DHT22;12054;53.662;10.126;2023-05-14T14:45:36;22.60;60.70
23748;DHT22;12054;53.662;10.126;2023-05-14T14:48:21;22.50;60.60
23748;DHT22;12054;53.662;10.126;2023-05-14T14:50:46;22.50;60.40
23748;DHT22;12054;53.662;10.126;2023-05-14T14:53:12;22.50;61.10
23748;DHT22;12054;53.662;10.126;2023-05-14T14:55:37;22.40;60.60
23748;DHT22;12054;53.662;10.126;2023-05-14T14:58:03;22.40;60.10
23748;DHT22;12054;53.662;10.126;2023-05-14T15:00:28;22.40;61.10
23748;DHT22;12054;53.662;10.126;2023-05-14T15:02:54;22.30;61.60
23748;DHT22;12054;53.662;10.126;2023-05-14T15:05:19;22.30;61.50
23748;DHT22;12054;53.662;10.126;2023-05-14T15:07:45;22.30;61.40
23748;DHT22;12054;53.662;10.126;2023-05-14T15:10:11;22.20;61.90
23748;DHT22;12054;53.662;10.126;2023-05-14T15:12:36;22.10;62.50
23748;DHT22;12054;53.662;10.126;2023-05-14T15:15:02;22.00;62.30
23748;DHT22;12054;53.662;10.126;2023-05-14T15:17:36;21.90;62.40
23748;DHT22;12054;53.662;10.126;2023-05-14T15:20:01;21.80;62.30